Terminal Aerodrome Forecast
Issued by NWS

Home | Current Version | Previous Version | Text Only | Print | Product List | Glossary On
Versions: 1 2 3 4 5 6 7 8 9 10 11 12 13 14 15 16 17 18 19 20 21 22 23 24 25
000
FTUS43 KGRR 262040 AAA
TAFAZO
TAF AMD
KAZO 262040Z 2621/2718 18005KT P6SM -RA OVC007
     FM270000 22005KT 5SM BR OVC007
     FM270900 24004KT 3/4SM BR OVC003
     FM271200 24005KT P6SM OVC008
     FM271500 25006KT 6SM BR OVC015=

USA.gov is the U.S. government's official web portal to all federal, state and local government web resources and services.